Time;durP1;ratioP1;P1;durP2;ratioP2;P2;SDS_P1;SDS_P2;PMS_P1;PMS_P2;Temp;Humidity;BMP_temperature;BMP_pressure;BME280_temperature;BME280_humidity;BME280_pressure;Samples;Min_cycle;Max_cycle;Signal;HPM_P1;HPM_P2
2022/09/20 00:02:08;;;;;;;5.90;3.50;;;;;;;-141.48;100.00;69781.59;5212929;28;20021;-81
2022/09/20 00:04:38;;;;;;;2.75;2.42;;;;;;;-141.48;100.00;69781.59;5210528;28;20021;-81
2022/09/20 00:07:08;;;;;;;3.30;3.10;;;;;;;-141.48;100.00;69781.59;5211603;28;20029;-82
2022/09/20 00:09:39;;;;;;;3.85;3.55;;;;;;;-141.48;100.00;69781.59;5212740;28;20055;-81
2022/09/20 00:12:10;;;;;;;3.75;2.83;;;;;;;-141.48;100.00;69781.59;5212394;28;20021;-81
2022/09/20 00:14:40;;;;;;;2.83;2.63;;;;;;;-141.48;100.00;69781.59;5193982;28;20032;-81
2022/09/20 00:17:10;;;;;;;11.27;4.00;;;;;;;-141.48;100.00;69781.59;5212133;28;20029;-82
2022/09/20 00:19:41;;;;;;;5.07;3.17;;;;;;;-141.48;100.00;69781.59;5211092;28;20025;-82
2022/09/20 00:22:11;;;;;;;3.75;3.03;;;;;;;-141.48;100.00;69781.59;5211391;28;20021;-82
2022/09/20 00:24:42;;;;;;;2.95;2.70;;;;;;;-141.48;100.00;69781.59;5209870;28;20029;-81
2022/09/20 00:27:13;;;;;;;3.60;3.30;;;;;;;-141.48;100.00;69781.59;5213128;28;20045;-80
2022/09/20 00:29:43;;;;;;;6.70;3.67;;;;;;;-141.48;100.00;69781.59;5213050;28;20029;-81
2022/09/20 00:32:13;;;;;;;3.72;3.03;;;;;;;-141.48;100.00;69781.59;5212980;28;20021;-80
2022/09/20 00:37:34;;;;;;;5.85;3.33;;;;;;;-141.48;100.00;69781.59;5211997;28;20037;-80
2022/09/20 00:40:08;;;;;;;2.80;2.63;;;;;;;-141.48;100.00;69781.59;5210840;28;20025;-82
2022/09/20 00:42:39;;;;;;;8.68;3.22;;;;;;;-141.48;100.00;69781.59;5208625;28;20364;-80
2022/09/20 00:45:20;;;;;;;2.42;2.33;;;;;;;-141.48;100.00;69781.59;5209149;28;20044;-80
2022/09/20 00:47:53;;;;;;;5.50;3.63;;;;;;;-141.48;100.00;69781.59;5210777;28;20044;-80
2022/09/20 00:50:39;;;;;;;3.78;3.30;;;;;;;-141.48;100.00;69781.59;5193139;28;20029;-81
2022/09/20 00:53:19;;;;;;;3.88;3.13;;;;;;;-141.48;100.00;69781.59;5195362;28;20021;-81
2022/09/20 00:55:57;;;;;;;11.55;3.33;;;;;;;-141.48;100.00;69781.59;5214488;28;20029;-81
2022/09/20 00:58:33;;;;;;;3.45;3.15;;;;;;;-141.48;100.00;69781.59;5196183;28;20029;-81
2022/09/20 01:01:04;;;;;;;7.00;3.33;;;;;;;-141.48;100.00;69781.59;5195841;28;20052;-82
2022/09/20 01:03:38;;;;;;;2.47;2.28;;;;;;;-141.48;100.00;69781.59;5212845;28;20048;-81
2022/09/20 01:06:12;;;;;;;2.40;2.25;;;;;;;-141.48;100.00;69781.59;5195785;28;20021;-81
2022/09/20 01:08:48;;;;;;;8.20;2.92;;;;;;;-141.48;100.00;69781.59;5213070;28;20163;-82
2022/09/20 01:11:18;;;;;;;3.42;3.17;;;;;;;-141.48;100.00;69781.59;5212508;28;20398;-82
2022/09/20 01:13:49;;;;;;;2.22;2.13;;;;;;;-141.48;100.00;69781.59;5209759;28;20097;-82
2022/09/20 01:16:21;;;;;;;4.45;4.05;;;;;;;-141.48;100.00;69781.59;5211695;28;20025;-82
2022/09/20 01:18:54;;;;;;;9.00;3.67;;;;;;;-141.48;100.00;69781.59;5212256;28;20093;-82
2022/09/20 01:21:25;;;;;;;5.18;3.35;;;;;;;-141.48;100.00;69781.59;5211668;28;20029;-82
2022/09/20 01:24:06;;;;;;;4.28;3.90;;;;;;;-141.48;100.00;69781.59;5210939;28;20057;-82
2022/09/20 01:27:04;;;;;;;12.38;5.22;;;;;;;-141.48;100.00;69781.59;5193766;28;20029;-82
2022/09/20 01:30:02;;;;;;;6.22;4.10;;;;;;;-141.48;100.00;69781.59;5210147;28;20037;-82
2022/09/20 01:32:48;;;;;;;11.13;5.15;;;;;;;-141.48;100.00;69781.59;5193313;28;20450;-82
2022/09/20 01:35:22;;;;;;;6.85;3.92;;;;;;;-141.48;100.00;69781.59;5197332;28;20093;-82
2022/09/20 01:37:59;;;;;;;13.95;4.32;;;;;;;-141.48;100.00;69781.59;5214874;28;20033;-82
2022/09/20 01:40:37;;;;;;;5.28;3.95;;;;;;;-141.48;100.00;69781.59;5197315;28;20395;-82
2022/09/20 01:43:35;;;;;;;11.52;4.63;;;;;;;-141.48;100.00;69781.59;5214994;28;20017;-82
2022/09/20 01:46:31;;;;;;;4.07;3.80;;;;;;;-141.48;100.00;69781.59;5215980;28;20041;-82
2022/09/20 01:49:14;;;;;;;10.80;5.53;;;;;;;-141.48;100.00;69781.59;5218328;28;20072;-81
2022/09/20 01:52:03;;;;;;;7.32;5.60;;;;;;;-141.48;100.00;69781.59;5218081;28;20059;-81
2022/09/20 01:54:36;;;;;;;7.30;6.33;;;;;;;-141.48;100.00;69781.59;5217427;28;20039;-83
2022/09/20 01:57:31;;;;;;;16.63;5.72;;;;;;;-141.48;100.00;69781.59;5200759;28;20052;-81
2022/09/20 02:00:07;;;;;;;6.38;5.90;;;;;;;-141.48;100.00;69781.59;5218178;28;20026;-82
2022/09/20 02:03:11;;;;;;;9.55;5.30;;;;;;;-141.48;100.00;69781.59;5214287;28;20094;-83
2022/09/20 02:06:12;;;;;;;3.45;3.35;;;;;;;-141.48;100.00;69781.59;5159062;28;20117;-81
2022/09/20 02:08:57;;;;;;;6.25;5.65;;;;;;;-141.48;100.00;69781.59;5214296;28;20030;-82
2022/09/20 02:11:27;;;;;;;5.35;4.82;;;;;;;-141.48;100.00;69781.59;5195214;28;20026;-82
2022/09/20 02:14:13;;;;;;;6.93;6.22;;;;;;;-141.48;100.00;69781.59;5212557;28;20108;-82
2022/09/20 02:16:55;;;;;;;6.05;5.65;;;;;;;-141.48;100.00;69781.59;5195992;28;20026;-82
2022/09/20 02:20:06;;;;;;;6.00;5.57;;;;;;;-141.48;100.00;69781.59;5196284;28;20044;-81
2022/09/20 02:23:05;;;;;;;5.05;4.75;;;;;;;-141.48;100.00;69781.59;5213166;28;20029;-81
2022/09/20 02:25:53;;;;;;;9.95;7.15;;;;;;;-141.48;100.00;69781.59;5213246;28;20041;-81
2022/09/20 02:28:43;;;;;;;7.70;6.95;;;;;;;-141.48;100.00;69781.59;5213129;28;20056;-81
2022/09/20 02:31:40;;;;;;;;;;;;;;;-141.48;100.00;69781.59;5214051;28;20043;-82
2022/09/20 02:34:35;;;;;;;11.80;8.50;;;;;;;-141.48;100.00;69781.59;5212488;28;19935;-81
2022/09/20 02:37:43;;;;;;;9.30;7.10;;;;;;;-141.48;100.00;69781.59;5212740;28;20037;-82
2022/09/20 02:40:32;;;;;;;10.75;7.63;;;;;;;-141.48;100.00;69781.59;5213352;28;20018;-82
2022/09/20 02:43:30;;;;;;;8.98;6.63;;;;;;;-141.48;100.00;69781.59;5214825;28;20025;-81
2022/09/20 02:46:21;;;;;;;8.27;4.88;;;;;;;-141.48;100.00;69781.59;5217677;28;20030;-82
2022/09/20 02:49:00;;;;;;;7.15;6.55;;;;;;;-141.48;100.00;69781.59;5240392;22;20048;-79
2022/09/20 02:51:45;;;;;;;8.50;5.45;;;;;;;-141.48;100.00;69781.59;5230000;28;20482;-82
2022/09/20 02:54:41;;;;;;;7.00;6.32;;;;;;;-141.48;100.00;69781.59;5230617;28;20486;-80
2022/09/20 02:57:25;;;;;;;8.10;5.47;;;;;;;-141.48;100.00;69781.59;5232840;28;20023;-80
2022/09/20 03:00:10;;;;;;;6.55;5.85;;;;;;;-141.48;100.00;69781.59;5233202;28;20037;-81
2022/09/20 03:03:01;;;;;;;7.03;5.72;;;;;;;-141.48;100.00;69781.59;5231573;28;20025;-80
2022/09/20 03:05:43;;;;;;;5.55;5.18;;;;;;;-141.48;100.00;69781.59;5228854;28;20056;-80
2022/09/20 03:08:29;;;;;;;7.20;6.60;;;;;;;-141.48;100.00;69781.59;5231981;28;20025;-81
2022/09/20 03:11:06;;;;;;;5.45;4.95;;;;;;;-141.48;100.00;69781.59;5233801;28;20052;-81
2022/09/20 03:13:58;;;;;;;6.18;5.68;;;;;;;-141.48;100.00;69781.59;5233816;28;20021;-81
2022/09/20 03:17:02;;;;;;;5.90;5.60;;;;;;;-141.48;100.00;69781.59;5234238;28;20112;-80
2022/09/20 03:19:57;;;;;;;7.22;6.72;;;;;;;-141.48;100.00;69781.59;5230859;28;20076;-80
2022/09/20 03:22:38;;;;;;;8.23;7.45;;;;;;;-141.48;100.00;69781.59;5229306;28;20075;-80
2022/09/20 03:25:14;;;;;;;8.20;7.55;;;;;;;-141.48;100.00;69781.59;5231205;28;20099;-81
2022/09/20 03:27:47;;;;;;;11.30;8.73;;;;;;;-141.48;100.00;69781.59;5233746;28;20033;-81
2022/09/20 03:30:35;;;;;;;8.35;7.60;;;;;;;-141.48;100.00;69781.59;5232307;28;20509;-81
2022/09/20 03:33:15;;;;;;;15.93;7.97;;;;;;;-141.48;100.00;69781.59;5233187;28;20107;-80
2022/09/20 03:36:10;;;;;;;7.60;7.05;;;;;;;-141.48;100.00;69781.59;5230534;28;20040;-80
2022/09/20 03:38:59;;;;;;;16.05;8.18;;;;;;;-141.48;100.00;69781.59;5233107;28;20029;-81
2022/09/20 03:41:38;;;;;;;7.95;7.38;;;;;;;-141.48;100.00;69781.59;5231853;28;20024;-81
2022/09/20 03:44:23;;;;;;;9.00;7.90;;;;;;;-141.48;100.00;69781.59;5232746;28;20067;-80
2022/09/20 03:47:22;;;;;;;11.13;7.53;;;;;;;-141.48;100.00;69781.59;5234187;28;20235;-81
2022/09/20 03:50:14;;;;;;;7.93;6.07;;;;;;;-141.48;100.00;69781.59;5233423;28;20059;-81
2022/09/20 03:52:50;;;;;;;13.80;9.35;;;;;;;-141.48;100.00;69781.59;5234008;28;20537;-82
2022/09/20 03:55:58;;;;;;;15.35;9.30;;;;;;;-141.48;100.00;69781.59;5232957;28;20031;-80
2022/09/20 03:58:50;;;;;;;13.27;7.60;;;;;;;-141.48;100.00;69781.59;5234098;28;20032;-81
2022/09/20 04:01:26;;;;;;;6.80;6.20;;;;;;;-141.48;100.00;69781.59;5231854;28;20453;-81
2022/09/20 04:03:57;;;;;;;11.25;8.48;;;;;;;-141.48;100.00;69781.59;5231265;28;20036;-82
2022/09/20 04:06:40;;;;;;;11.48;8.88;;;;;;;-141.48;100.00;69781.59;5238515;28;20016;-80
2022/09/20 04:09:24;;;;;;;15.82;7.22;;;;;;;-141.48;100.00;69781.59;5242597;28;20021;-82
2022/09/20 04:12:16;;;;;;;7.47;6.70;;;;;;;-141.48;100.00;69781.59;5233852;28;20032;-81
2022/09/20 04:14:54;;;;;;;7.53;6.93;;;;;;;-141.48;100.00;69781.59;5232704;28;20056;-82
2022/09/20 04:17:34;;;;;;;9.13;8.20;;;;;;;-141.48;100.00;69781.59;5233907;28;20045;-81
2022/09/20 04:20:31;;;;;;;11.50;7.15;;;;;;;-141.48;100.00;69781.59;5233345;28;20143;-80
2022/09/20 04:23:35;;;;;;;6.85;6.35;;;;;;;-141.48;100.00;69781.59;5232147;28;20151;-82
2022/09/20 04:26:06;;;;;;;6.20;5.70;;;;;;;-141.48;100.00;69781.59;5231988;28;20076;-81
2022/09/20 04:28:47;;;;;;;7.65;7.03;;;;;;;-141.48;100.00;69781.59;5234850;28;20092;-80
2022/09/20 04:31:36;;;;;;;8.35;6.38;;;;;;;-141.48;100.00;69781.59;5234868;28;20037;-80
2022/09/20 04:34:18;;;;;;;15.93;6.73;;;;;;;-141.48;100.00;69781.59;5234631;28;20017;-80
2022/09/20 04:36:57;;;;;;;16.40;7.43;;;;;;;-141.48;100.00;69781.59;5233701;28;20070;-80
2022/09/20 04:39:49;;;;;;;8.80;4.85;;;;;;;-141.48;100.00;69781.59;5232370;28;20025;-79
2022/09/20 04:42:34;;;;;;;5.88;5.47;;;;;;;-141.48;100.00;69781.59;5235708;28;20013;-79
2022/09/20 04:45:43;;;;;;;8.27;5.53;;;;;;;-141.48;100.00;69781.59;5232824;28;20031;-80
2022/09/20 04:48:37;;;;;;;10.83;6.33;;;;;;;-141.48;100.00;69781.59;5235315;28;20028;-80
2022/09/20 04:51:16;;;;;;;6.13;5.10;;;;;;;-141.48;100.00;69781.59;5235212;28;20021;-80
2022/09/20 04:54:02;;;;;;;6.53;5.85;;;;;;;-141.48;100.00;69781.59;5256863;28;20024;-80
2022/09/20 04:57:10;;;;;;;4.65;4.35;;;;;;;-141.48;100.00;69781.59;5270135;28;20036;-79
2022/09/20 05:00:01;;;;;;;11.05;5.20;;;;;;;-141.48;100.00;69781.59;5242010;28;20024;-80
2022/09/20 05:03:09;;;;;;;5.68;5.22;;;;;;;-141.48;100.00;69781.59;5243452;28;20052;-81
2022/09/20 05:05:49;;;;;;;5.00;4.75;;;;;;;-141.48;100.00;69781.59;5254179;28;20031;-81
2022/09/20 05:08:28;;;;;;;8.85;5.93;;;;;;;-141.48;100.00;69781.59;5245329;28;20447;-81
2022/09/20 05:11:36;;;;;;;9.23;5.33;;;;;;;-141.48;100.00;69781.59;5249683;28;20068;-81
2022/09/20 05:14:23;;;;;;;5.85;5.00;;;;;;;-141.48;100.00;69781.59;5256256;28;20357;-81
2022/09/20 05:17:13;;;;;;;7.47;5.50;;;;;;;-141.48;100.00;69781.59;5255149;28;20126;-80
2022/09/20 05:20:02;;;;;;;7.95;6.53;;;;;;;-141.48;100.00;69781.59;5254519;28;20410;-81
2022/09/20 05:23:07;;;;;;;10.23;6.17;;;;;;;-141.48;100.00;69781.59;5248671;28;20025;-80
2022/09/20 05:26:07;;;;;;;10.25;7.25;;;;;;;-141.48;100.00;69781.59;5248008;28;20032;-78
2022/09/20 05:29:02;;;;;;;9.48;8.13;;;;;;;-141.48;100.00;69781.59;5250158;28;20032;-78
2022/09/20 05:32:02;;;;;;;8.38;7.57;;;;;;;-141.48;100.00;69781.59;5249335;28;20458;-79
2022/09/20 05:34:32;;;;;;;7.82;7.22;;;;;;;-141.48;100.00;69781.59;5247973;28;20031;-79
2022/09/20 05:37:21;;;;;;;8.45;7.28;;;;;;;-141.48;100.00;69781.59;5249054;28;20025;-81
2022/09/20 05:39:56;;;;;;;11.95;9.18;;;;;;;-141.48;100.00;69781.59;5247902;28;20032;-80
2022/09/20 05:42:36;;;;;;;9.85;9.02;;;;;;;-141.48;100.00;69781.59;5249911;28;20103;-81
2022/09/20 05:45:20;;;;;;;16.45;9.68;;;;;;;-141.48;100.00;69781.59;5251161;28;20078;-78
2022/09/20 05:48:09;;;;;;;15.60;10.82;;;;;;;-141.48;100.00;69781.59;5248062;28;20470;-78
2022/09/20 05:50:58;;;;;;;12.67;9.20;;;;;;;-141.48;100.00;69781.59;5248392;28;20028;-79
2022/09/20 05:54:04;;;;;;;13.30;12.20;;;;;;;-141.48;100.00;69781.59;5248908;28;20092;-79
2022/09/20 05:57:14;;;;;;;12.88;11.70;;;;;;;-141.48;100.00;69781.59;5248341;28;20029;-79
2022/09/20 06:00:09;;;;;;;14.07;11.98;;;;;;;-141.48;100.00;69781.59;5246403;28;20044;-80
2022/09/20 06:02:53;;;;;;;13.77;12.45;;;;;;;-141.48;100.00;69781.59;5248928;28;20043;-80
2022/09/20 06:05:41;;;;;;;17.90;16.08;;;;;;;-141.48;100.00;69781.59;5247661;28;20563;-78
2022/09/20 06:08:56;;;;;;;16.38;14.75;;;;;;;-141.48;100.00;69781.59;5247947;28;20027;-82
2022/09/20 06:11:51;;;;;;;19.95;17.00;;;;;;;-141.48;100.00;69781.59;5215125;28;20060;-80
2022/09/20 06:14:35;;;;;;;20.58;18.55;;;;;;;-141.48;100.00;69781.59;5247488;28;20028;-78
2022/09/20 06:17:26;;;;;;;19.60;18.10;;;;;;;-141.48;100.00;69781.59;5247436;28;20059;-79
2022/09/20 06:20:15;;;;;;;17.15;15.90;;;;;;;-141.48;100.00;69781.59;5251904;28;20017;-81
2022/09/20 06:22:51;;;;;;;20.95;19.30;;;;;;;-141.48;100.00;69781.59;5247194;28;20035;-79
2022/09/20 06:25:30;;;;;;;21.73;17.20;;;;;;;-141.48;100.00;69781.59;5247444;28;20029;-79
2022/09/20 06:28:14;;;;;;;22.70;18.10;;;;;;;-141.48;100.00;69781.59;5248670;28;20047;-82
2022/09/20 06:30:50;;;;;;;22.90;19.00;;;;;;;-141.48;100.00;69781.59;5247164;28;20048;-79
2022/09/20 06:33:24;;;;;;;19.70;17.58;;;;;;;-141.48;100.00;69781.59;5247215;28;20035;-80
2022/09/20 06:42:20;;;;;;;25.63;20.10;;;;;;;-141.48;100.00;69781.59;5247546;28;20035;-79
2022/09/20 06:44:52;;;;;;;18.20;16.67;;;;;;;-141.48;100.00;69781.59;5247142;28;20102;-80
2022/09/20 06:47:22;;;;;;;19.63;18.38;;;;;;;-141.48;100.00;69781.59;5248904;28;20032;-81
2022/09/20 06:49:52;;;;;;;22.17;20.45;;;;;;;-141.48;100.00;69781.59;5247867;28;20438;-80
2022/09/20 06:52:23;;;;;;;20.67;19.08;;;;;;;-141.48;100.00;69781.59;5251563;28;20017;-78
2022/09/20 06:54:55;;;;;;;19.88;18.27;;;;;;;-141.48;100.00;69781.59;5249264;28;20024;-81
2022/09/20 06:57:34;;;;;;;19.40;17.83;;;;;;;-141.48;100.00;69781.59;5256925;28;20021;-80
2022/09/20 07:00:08;;;;;;;18.30;16.77;;;;;;;-141.48;100.00;69781.59;5261947;28;20050;-80
2022/09/20 07:02:39;;;;;;;22.13;20.00;;;;;;;-141.48;100.00;69781.59;5260067;28;20017;-79
2022/09/20 07:05:14;;;;;;;20.38;18.42;;;;;;;-141.48;100.00;69781.59;5260488;28;20047;-80
2022/09/20 07:07:46;;;;;;;19.77;18.05;;;;;;;-141.48;100.00;69781.59;5251953;28;20426;-79
2022/09/20 07:10:16;;;;;;;18.50;17.00;;;;;;;-141.48;100.00;69781.59;5247054;28;20029;-79
2022/09/20 07:12:47;;;;;;;18.10;16.20;;;;;;;-141.48;100.00;69781.59;5245703;28;20114;-79
2022/09/20 07:15:21;;;;;;;20.02;18.48;;;;;;;-141.48;100.00;69781.59;5246771;28;20085;-80
2022/09/20 07:17:52;;;;;;;17.58;16.23;;;;;;;-141.48;100.00;69781.59;5247728;28;20462;-80
2022/09/20 07:20:22;;;;;;;18.10;16.50;;;;;;;-141.48;100.00;69781.59;5248812;28;20097;-81
2022/09/20 07:22:53;;;;;;;15.93;14.18;;;;;;;-141.48;100.00;69781.59;5249993;28;20021;-80
2022/09/20 07:25:23;;;;;;;16.25;15.02;;;;;;;-141.48;100.00;69781.59;5248002;28;20044;-79
2022/09/20 07:27:53;;;;;;;15.77;14.73;;;;;;;-141.48;100.00;69781.59;5248634;28;20104;-80
2022/09/20 07:30:24;;;;;;;16.40;15.00;;;;;;;-141.48;100.00;69781.59;5248848;28;20080;-78
2022/09/20 07:32:54;;;;;;;17.20;15.38;;;;;;;-141.48;100.00;69781.59;5248667;28;20107;-80
2022/09/20 07:35:25;;;;;;;16.73;15.23;;;;;;;-141.48;100.00;69781.59;5247755;28;20025;-79
2022/09/20 07:37:57;;;;;;;15.82;14.30;;;;;;;-141.48;100.00;69781.59;5247658;28;20115;-80
2022/09/20 07:40:27;;;;;;;15.65;14.10;;;;;;;-141.48;100.00;69781.59;5228126;28;20447;-80
2022/09/20 07:42:57;;;;;;;16.38;14.77;;;;;;;-141.48;100.00;69781.59;5226120;28;20032;-80
2022/09/20 07:45:28;;;;;;;16.05;14.63;;;;;;;-141.48;100.00;69781.59;5226271;28;20020;-78
2022/09/20 07:48:01;;;;;;;15.75;14.35;;;;;;;-141.48;100.00;69781.59;5227442;28;20445;-79
2022/09/20 07:50:35;;;;;;;16.67;15.02;;;;;;;-141.48;100.00;69781.59;5227443;28;20037;-79
2022/09/20 07:53:05;;;;;;;15.20;13.60;;;;;;;-141.48;100.00;69781.59;5227443;28;20329;-80
2022/09/20 07:55:35;;;;;;;15.35;12.65;;;;;;;-141.48;100.00;69781.59;5225204;28;20116;-81
2022/09/20 07:58:06;;;;;;;13.70;12.65;;;;;;;-141.48;100.00;69781.59;5226436;28;20111;-80
2022/09/20 08:00:36;;;;;;;15.27;13.88;;;;;;;-141.48;100.00;69781.59;5226625;28;20047;-81
2022/09/20 08:03:07;;;;;;;14.27;13.20;;;;;;;-141.48;100.00;69781.59;5232402;28;20040;-80
2022/09/20 08:05:37;;;;;;;14.73;13.63;;;;;;;-141.48;100.00;69781.59;5230056;28;20028;-80
2022/09/20 08:08:08;;;;;;;14.60;12.27;;;;;;;-141.48;100.00;69781.59;5231551;28;20059;-82
2022/09/20 08:10:39;;;;;;;13.88;12.40;;;;;;;-141.48;100.00;69781.59;5233585;28;20120;-81
2022/09/20 08:13:10;;;;;;;14.77;13.45;;;;;;;-141.48;100.00;69781.59;5232022;28;20017;-82
2022/09/20 08:15:41;;;;;;;11.05;10.05;;;;;;;-141.48;100.00;69781.59;5229961;28;20028;-81
2022/09/20 08:18:12;;;;;;;12.32;11.25;;;;;;;-141.48;100.00;69781.59;5229438;28;20332;-80
2022/09/20 08:20:42;;;;;;;12.63;11.60;;;;;;;-141.48;100.00;69781.59;5231333;28;20094;-81
2022/09/20 08:23:12;;;;;;;13.45;12.48;;;;;;;-141.48;100.00;69781.59;5232590;28;20104;-81
2022/09/20 08:25:43;;;;;;;13.38;12.02;;;;;;;-141.48;100.00;69781.59;5232518;28;20040;-81
2022/09/20 08:28:13;;;;;;;10.55;9.85;;;;;;;-141.48;100.00;69781.59;5232086;28;20025;-81
2022/09/20 08:30:43;;;;;;;11.13;10.30;;;;;;;-141.48;100.00;69781.59;5231387;28;20025;-81
2022/09/20 08:33:14;;;;;;;17.13;11.27;;;;;;;-141.48;100.00;69781.59;5232816;28;20053;-81
2022/09/20 08:35:48;;;;;;;9.63;9.02;;;;;;;-141.48;100.00;69781.59;5231689;28;20395;-81
2022/09/20 08:38:18;;;;;;;13.38;11.20;;;;;;;-141.48;100.00;69781.59;5228445;28;20467;-81
2022/09/20 08:40:48;;;;;;;12.38;10.75;;;;;;;-141.48;100.00;69781.59;5230759;28;20056;-81
2022/09/20 08:43:31;;;;;;;9.52;8.93;;;;;;;-141.48;100.00;69781.59;5229540;28;20073;-82
2022/09/20 08:46:04;;;;;;;11.10;10.07;;;;;;;-141.48;100.00;69781.59;5233276;28;20079;-81
2022/09/20 08:48:35;;;;;;;11.35;10.52;;;;;;;-141.48;100.00;69781.59;5257807;22;20500;-67
2022/09/20 08:51:05;;;;;;;10.95;10.25;;;;;;;-141.48;100.00;69781.59;5230567;28;20067;-64
2022/09/20 08:53:39;;;;;;;10.75;9.85;;;;;;;-141.48;100.00;69781.59;5226493;28;20017;-67
2022/09/20 08:56:10;;;;;;;11.65;10.57;;;;;;;-141.48;100.00;69781.59;5209452;28;20029;-64
2022/09/20 08:58:42;;;;;;;10.65;9.70;;;;;;;-141.48;100.00;69781.59;5209343;28;20029;-64
2022/09/20 09:01:19;;;;;;;10.75;10.05;;;;;;;-141.48;100.00;69781.59;5208622;28;20049;-64
2022/09/20 09:03:51;;;;;;;13.73;11.32;;;;;;;-141.48;100.00;69781.59;5226002;28;20021;-64
2022/09/20 09:06:23;;;;;;;9.23;8.43;;;;;;;-141.48;100.00;69781.59;5226523;28;20114;-67
2022/09/20 09:08:58;;;;;;;9.60;8.90;;;;;;;-141.48;100.00;69781.59;5208866;28;20017;-64
2022/09/20 09:11:28;;;;;;;10.70;8.45;;;;;;;-141.48;100.00;69781.59;5209038;28;20488;-67
2022/09/20 09:17:00;;;;;;;9.57;8.88;;;;;;;-141.48;100.00;69781.59;5226655;28;20043;-67
2022/09/20 09:19:43;;;;;;;11.20;10.18;;;;;;;-141.48;100.00;69781.59;5226211;28;20532;-67
2022/09/20 09:22:20;;;;;;;8.93;7.13;;;;;;;-141.48;100.00;69781.59;5226349;28;20052;-66
2022/09/20 09:25:07;;;;;;;6.00;5.60;;;;;;;-141.48;100.00;69781.59;5225503;28;20040;-66
2022/09/20 09:27:52;;;;;;;8.32;6.85;;;;;;;-141.48;100.00;69781.59;5226624;28;20029;-66
2022/09/20 09:30:27;;;;;;;13.73;7.28;;;;;;;-141.48;100.00;69781.59;5226001;28;20056;-66
2022/09/20 09:33:26;;;;;;;7.85;7.10;;;;;;;-141.48;100.00;69781.59;5226334;28;20028;-66
2022/09/20 09:36:03;;;;;;;7.97;7.38;;;;;;;-141.48;100.00;69781.59;5218755;28;20519;-66
2022/09/20 09:38:39;;;;;;;8.27;6.82;;;;;;;-141.48;100.00;69781.59;5226443;28;20024;-67
2022/09/20 09:41:34;;;;;;;8.02;6.95;;;;;;;-141.48;100.00;69781.59;5226136;28;20108;-67
2022/09/20 09:44:26;;;;;;;7.78;7.13;;;;;;;-141.48;100.00;69781.59;5225764;28;20021;-67
2022/09/20 09:46:57;;;;;;;6.95;6.47;;;;;;;-141.48;100.00;69781.59;5208229;28;20067;-67
2022/09/20 09:49:32;;;;;;;6.65;5.30;;;;;;;-141.48;100.00;69781.59;5225789;28;20056;-67
2022/09/20 09:52:24;;;;;;;5.93;5.45;;;;;;;-141.48;100.00;69781.59;5225612;28;20385;-67
2022/09/20 09:54:59;;;;;;;9.15;5.80;;;;;;;-141.48;100.00;69781.59;5225288;28;20389;-67
2022/09/20 09:58:05;;;;;;;7.63;6.78;;;;;;;-141.48;100.00;69781.59;5225817;28;20028;-67
2022/09/20 10:00:41;;;;;;;11.07;7.00;;;;;;;-141.48;100.00;69781.59;5221514;28;20535;-67
2022/09/20 10:03:31;;;;;;;6.40;5.22;;;;;;;-141.48;100.00;69781.59;5226060;28;20043;-67
2022/09/20 10:06:26;;;;;;;7.03;4.97;;;;;;;-141.48;100.00;69781.59;5207860;28;20036;-67
2022/09/20 10:09:10;;;;;;;4.75;4.45;;;;;;;-141.48;100.00;69781.59;5225069;28;20028;-67
2022/09/20 10:11:43;;;;;;;4.82;4.40;;;;;;;-141.48;100.00;69781.59;5225282;28;20032;-67
2022/09/20 10:14:51;;;;;;;2.60;2.50;;;;;;;-141.48;100.00;69781.59;5207175;28;20033;-66
2022/09/20 10:17:50;;;;;;;4.05;3.72;;;;;;;-141.48;100.00;69781.59;5225292;28;20400;-66
2022/09/20 10:20:30;;;;;;;3.00;2.75;;;;;;;-141.48;100.00;69781.59;5225345;28;20163;-66
2022/09/20 10:23:27;;;;;;;3.65;3.45;;;;;;;-141.48;100.00;69781.59;5224908;28;20099;-66
2022/09/20 10:26:09;;;;;;;6.65;2.65;;;;;;;-141.48;100.00;69781.59;5225378;28;20057;-67
2022/09/20 10:28:47;;;;;;;4.05;3.60;;;;;;;-141.48;100.00;69781.59;5224917;28;20033;-67
2022/09/20 10:31:36;;;;;;;3.38;3.08;;;;;;;-141.48;100.00;69781.59;5206771;28;20025;-67
2022/09/20 10:34:45;;;;;;;4.95;3.80;;;;;;;-141.48;100.00;69781.59;5224461;28;20025;-67
2022/09/20 10:37:36;;;;;;;6.35;4.32;;;;;;;-141.48;100.00;69781.59;5225540;28;20035;-67
2022/09/20 10:43:40;;;;;;;2.85;2.65;;;;;;;-141.48;100.00;69781.59;5224462;28;20449;-67
2022/09/20 10:46:52;;;;;;;4.30;2.85;;;;;;;-141.48;100.00;69781.59;5224778;28;20036;-67
2022/09/20 10:49:38;;;;;;;2.80;2.05;;;;;;;-141.48;100.00;69781.59;5224336;28;20040;-67
2022/09/20 10:52:23;;;;;;;3.17;2.75;;;;;;;-141.48;100.00;69781.59;5224805;28;20082;-67
2022/09/20 10:54:56;;;;;;;8.30;3.95;;;;;;;-141.48;100.00;69781.59;5224377;28;20037;-67
2022/09/20 10:57:39;;;;;;;9.50;3.05;;;;;;;-141.48;100.00;69781.59;5224550;28;20025;-67
2022/09/20 11:00:18;;;;;;;2.40;2.20;;;;;;;-141.48;100.00;69781.59;5224736;28;20373;-67
2022/09/20 11:03:03;;;;;;;6.90;3.42;;;;;;;-141.48;100.00;69781.59;5206354;28;20045;-66
2022/09/20 11:05:45;;;;;;;2.75;2.05;;;;;;;-141.48;100.00;69781.59;5206202;28;20396;-67
2022/09/20 11:08:24;;;;;;;3.08;2.97;;;;;;;-141.48;100.00;69781.59;5224293;28;20021;-67
2022/09/20 11:11:01;;;;;;;7.43;3.40;;;;;;;-141.48;100.00;69781.59;5224595;28;20090;-66
2022/09/20 11:14:11;;;;;;;6.18;2.72;;;;;;;-141.48;100.00;69781.59;5223805;28;20035;-67
2022/09/20 11:16:45;;;;;;;;;;;;;;;-141.48;100.00;69781.59;5224580;28;20381;-67
2022/09/20 11:19:30;;;;;;;1.92;1.83;;;;;;;-141.48;100.00;69781.59;5224073;28;19909;-67
2022/09/20 11:22:21;;;;;;;2.05;1.95;;;;;;;-141.48;100.00;69781.59;5223826;28;20362;-67
2022/09/20 11:25:15;;;;;;;1.92;1.42;;;;;;;-141.48;100.00;69781.59;5223423;28;20032;-67
2022/09/20 11:28:32;;;;;;;7.07;2.50;;;;;;;-141.48;100.00;69781.59;5224037;28;20040;-67
2022/09/20 11:31:09;;;;;;;4.05;2.40;;;;;;;-141.48;100.00;69781.59;5204574;28;20504;-67
2022/09/20 11:34:16;;;;;;;5.47;2.20;;;;;;;-141.48;100.00;69781.59;5223622;28;20465;-67
2022/09/20 11:36:56;;;;;;;2.80;2.58;;;;;;;-141.48;100.00;69781.59;5220535;28;20037;-67
2022/09/20 11:39:47;;;;;;;2.15;2.05;;;;;;;-141.48;100.00;69781.59;5223633;28;20029;-67
2022/09/20 11:42:22;;;;;;;1.65;1.55;;;;;;;-141.48;100.00;69781.59;5223246;28;20424;-68
2022/09/20 11:44:53;;;;;;;2.65;2.05;;;;;;;-141.48;100.00;69781.59;5205319;28;20029;-67
2022/09/20 11:47:44;;;;;;;5.72;2.70;;;;;;;-141.48;100.00;69781.59;5223508;28;20032;-67
2022/09/20 11:50:34;;;;;;;5.40;2.88;;;;;;;-141.48;100.00;69781.59;5223355;28;20570;-67
2022/09/20 11:53:16;;;;;;;1.70;1.60;;;;;;;-141.48;100.00;69781.59;5223018;28;20503;-68
2022/09/20 11:55:53;;;;;;;4.45;2.17;;;;;;;-141.48;100.00;69781.59;5223316;28;20029;-67
2022/09/20 11:58:26;;;;;;;4.13;1.55;;;;;;;-141.48;100.00;69781.59;5220364;28;20091;-68
2022/09/20 12:00:58;;;;;;;5.95;3.25;;;;;;;-141.48;100.00;69781.59;5205519;28;20032;-67
2022/09/20 12:03:31;;;;;;;4.38;2.25;;;;;;;-141.48;100.00;69781.59;5222757;28;20063;-67
2022/09/20 12:06:05;;;;;;;2.65;2.53;;;;;;;-141.48;100.00;69781.59;5223481;28;20465;-67
2022/09/20 12:08:39;;;;;;;2.85;2.15;;;;;;;-141.48;100.00;69781.59;5223481;28;20025;-67
2022/09/20 12:11:13;;;;;;;1.33;1.33;;;;;;;-141.48;100.00;69781.59;5223685;28;20017;-67
2022/09/20 12:14:00;;;;;;;3.72;3.53;;;;;;;-141.48;100.00;69781.59;5204896;28;20021;-67
2022/09/20 12:16:49;;;;;;;3.88;1.92;;;;;;;-141.48;100.00;69781.59;5223670;28;20513;-67
2022/09/20 12:19:32;;;;;;;7.47;2.67;;;;;;;-141.48;100.00;69781.59;5223510;28;20028;-67
2022/09/20 12:22:02;;;;;;;2.63;2.42;;;;;;;-141.48;100.00;69781.59;5205224;28;20508;-68
2022/09/20 12:24:34;;;;;;;2.17;2.05;;;;;;;-141.48;100.00;69781.59;5222766;28;20096;-67
2022/09/20 12:27:28;;;;;;;2.17;2.08;;;;;;;-141.48;100.00;69781.59;5223444;28;20031;-67